Terminal Aerodrome Forecast
Issued by NWS Twin Cities, MN

Home | Current Version | Previous Version | Graphics & Text | Print | Product List | Glossary On
Versions: 1 2 3 4 5 6 7 8 9 10 11 12 13 14 15 16 17 18 19 20 21 22 23 24 25
458
FTUS43 KMPX 181459 AAA
TAFMSP
TAF AMD
KMSP 181459Z 1815/1918 01009KT P6SM -DZSN OVC028
     FM181900 01010KT P6SM -SN OVC015
     FM190000 36010KT P6SM OVC020
     FM190100 01010KT P6SM OVC050
     FM190600 35006KT P6SM SCT250=

USA.gov is the U.S. government's official web portal to all federal, state and local government web resources and services.